Time;durP1;ratioP1;P1;durP2;ratioP2;P2;SDS_P1;SDS_P2;PMS_P1;PMS_P2;Temp;Humidity;BMP_temperature;BMP_pressure;BME280_temperature;BME280_humidity;BME280_pressure;Samples;Min_cycle;Max_cycle;Signal;HPM_P1;HPM_P2
2022/05/01 00:00:10;;;;;;;6.78;4.43;;;11.30;99.90;;;;;;5052053;28;20052;-64
2022/05/01 00:02:36;;;;;;;7.20;4.90;;;11.30;99.90;;;;;;5052428;28;20040;-68
2022/05/01 00:05:02;;;;;;;9.75;5.32;;;11.40;99.90;;;;;;5034311;28;20021;-64
2022/05/01 00:07:28;;;;;;;6.53;4.65;;;11.40;99.90;;;;;;5034648;28;20458;-65
2022/05/01 00:09:53;;;;;;;9.38;5.55;;;11.40;99.90;;;;;;5035595;28;20033;-65
2022/05/01 00:12:19;;;;;;;7.47;4.63;;;11.40;99.90;;;;;;5052251;28;20557;-64
2022/05/01 00:14:45;;;;;;;7.60;4.43;;;11.40;99.90;;;;;;5034640;28;20458;-64
2022/05/01 00:17:11;;;;;;;7.45;4.60;;;11.40;99.90;;;;;;5051709;28;20110;-63
2022/05/01 00:19:37;;;;;;;7.05;5.45;;;11.40;99.90;;;;;;5052257;28;20033;-67
2022/05/01 00:22:03;;;;;;;6.45;5.10;;;11.30;99.90;;;;;;5033796;28;20053;-65
2022/05/01 00:24:29;;;;;;;8.13;5.72;;;11.30;99.90;;;;;;5054255;28;20029;-65
2022/05/01 00:26:55;;;;;;;8.02;4.93;;;11.30;99.90;;;;;;5054637;28;20037;-64
2022/05/01 00:29:24;;;;;;;12.15;5.15;;;11.30;99.90;;;;;;5053278;28;20373;-64
2022/05/01 00:31:50;;;;;;;6.05;5.38;;;11.30;99.90;;;;;;5053081;28;20547;-63
2022/05/01 00:36:59;;;;;;;7.45;5.13;;;11.30;99.90;;;;;;5055875;28;20100;-66
2022/05/01 00:39:25;;;;;;;8.35;5.40;;;11.20;99.90;;;;;;5056946;28;20029;-65
2022/05/01 00:41:50;;;;;;;10.88;5.72;;;11.30;99.90;;;;;;5039425;28;20089;-65
2022/05/01 00:44:17;;;;;;;8.32;5.43;;;11.20;99.90;;;;;;5057140;28;20265;-64
2022/05/01 00:46:51;;;;;;;10.88;5.53;;;11.30;99.90;;;;;;5056809;28;20032;-64
2022/05/01 00:49:22;;;;;;;8.27;4.97;;;11.20;99.90;;;;;;5037954;28;20037;-64
2022/05/01 00:51:52;;;;;;;7.85;5.00;;;11.30;99.90;;;;;;5038231;28;20036;-64
2022/05/01 00:54:22;;;;;;;6.63;4.43;;;11.40;99.90;;;;;;5055016;28;20032;-64
2022/05/01 00:56:49;;;;;;;13.30;5.75;;;11.40;99.90;;;;;;5037978;28;20025;-66
2022/05/01 00:59:17;;;;;;;7.47;5.10;;;11.40;99.90;;;;;;5056024;28;20021;-64
2022/05/01 01:01:43;;;;;;;7.57;4.88;;;11.30;99.90;;;;;;5038173;28;20032;-63
2022/05/01 01:04:10;;;;;;;8.13;5.53;;;11.30;99.90;;;;;;5055278;28;20100;-63
2022/05/01 01:06:37;;;;;;;7.93;4.63;;;11.10;99.90;;;;;;5055775;28;20035;-64
2022/05/01 01:09:03;;;;;;;9.18;5.10;;;11.30;99.90;;;;;;5055636;28;20040;-64
2022/05/01 01:11:29;;;;;;;6.95;4.97;;;11.30;99.90;;;;;;5056231;28;20024;-65
2022/05/01 01:13:55;;;;;;;11.63;6.15;;;11.30;99.90;;;;;;5056579;28;20100;-63
2022/05/01 01:16:21;;;;;;;8.93;5.72;;;11.20;99.90;;;;;;5055890;28;20565;-66
2022/05/01 01:18:47;;;;;;;9.20;5.20;;;11.20;99.90;;;;;;5057384;28;20053;-66
2022/05/01 01:21:13;;;;;;;7.38;4.95;;;11.20;99.90;;;;;;5055566;28;20053;-73
2022/05/01 01:23:42;;;;;;;9.82;5.57;;;11.30;99.90;;;;;;5037944;28;20071;-64
2022/05/01 01:26:10;;;;;;;11.40;5.57;;;11.30;99.90;;;;;;5055025;28;20028;-65
2022/05/01 01:28:38;;;;;;;8.82;5.45;;;11.30;99.90;;;;;;5055875;28;20061;-63
2022/05/01 01:33:51;;;;;;;11.85;6.28;;;11.20;99.90;;;;;;5055432;28;20040;-65
2022/05/01 01:36:20;;;;;;;13.23;5.18;;;11.30;99.90;;;;;;5036931;28;20037;-65
2022/05/01 01:38:46;;;;;;;6.95;5.10;;;11.30;99.90;;;;;;5037388;28;20376;-68
2022/05/01 01:41:15;;;;;;;9.55;5.50;;;11.20;99.90;;;;;;5036792;28;20025;-66
2022/05/01 01:43:43;;;;;;;7.03;4.75;;;11.20;99.90;;;;;;5054939;28;20064;-66
2022/05/01 01:46:09;;;;;;;8.05;4.60;;;11.20;99.90;;;;;;5053278;28;20037;-63
2022/05/01 01:48:35;;;;;;;9.88;5.63;;;11.20;99.90;;;;;;5037109;28;20029;-63
2022/05/01 01:51:06;;;;;;;9.27;5.10;;;11.40;99.90;;;;;;5054798;28;20029;-67
2022/05/01 01:53:35;;;;;;;11.82;5.85;;;11.30;99.90;;;;;;5055112;28;20052;-63
2022/05/01 01:56:01;;;;;;;7.80;5.32;;;11.20;99.90;;;;;;5036989;28;20140;-64
2022/05/01 01:58:28;;;;;;;19.35;5.88;;;11.20;99.90;;;;;;5054728;28;20021;-63
2022/05/01 02:00:55;;;;;;;7.30;5.15;;;11.20;99.90;;;;;;5054434;28;20044;-65
2022/05/01 02:03:21;;;;;;;10.38;5.18;;;11.20;99.90;;;;;;5054082;28;20025;-64
2022/05/01 02:05:47;;;;;;;7.63;5.20;;;11.20;99.90;;;;;;5054484;28;20033;-63
2022/05/01 02:08:13;;;;;;;10.45;5.07;;;11.10;99.90;;;;;;5054059;28;20490;-64
2022/05/01 02:10:39;;;;;;;6.90;4.60;;;11.20;99.90;;;;;;5054716;28;20381;-64
2022/05/01 02:13:06;;;;;;;8.48;5.93;;;11.20;99.90;;;;;;5054510;28;20080;-64
2022/05/01 02:15:35;;;;;;;9.43;5.43;;;11.10;99.90;;;;;;5037738;28;20028;-65
2022/05/01 02:18:01;;;;;;;7.82;4.90;;;11.20;99.90;;;;;;5036737;28;20029;-63
2022/05/01 02:21:34;;;;;;;10.63;5.68;;;11.20;99.90;;;;;;5053482;28;20045;-68
2022/05/01 02:23:15;;;;;;;7.38;5.03;;;11.20;99.90;;;;;;5053391;28;20036;-64
2022/05/01 02:25:41;;;;;;;10.15;5.40;;;11.10;99.90;;;;;;5054010;28;20382;-63
2022/05/01 02:28:07;;;;;;;9.57;5.47;;;11.20;99.90;;;;;;5053555;28;20025;-64
2022/05/01 02:30:33;;;;;;;6.68;5.15;;;11.20;99.90;;;;;;5036151;28;20032;-68
2022/05/01 02:32:58;;;;;;;6.85;4.90;;;11.10;99.90;;;;;;5053721;28;20021;-67
2022/05/01 02:35:24;;;;;;;7.65;4.57;;;11.10;99.90;;;;;;5053446;28;20116;-66
2022/05/01 02:37:50;;;;;;;12.70;5.45;;;11.10;99.90;;;;;;5053747;28;20489;-65
2022/05/01 02:40:15;;;;;;;6.05;4.90;;;11.10;99.90;;;;;;5053325;28;20035;-65
2022/05/01 02:42:42;;;;;;;6.88;5.50;;;11.10;99.90;;;;;;5035942;28;20021;-64
2022/05/01 02:45:08;;;;;;;15.38;4.72;;;11.10;99.90;;;;;;5053537;28;20025;-64
2022/05/01 02:47:34;;;;;;;9.90;6.15;;;11.00;99.90;;;;;;5036785;28;20091;-64
2022/05/01 02:50:00;;;;;;;9.63;5.40;;;11.00;99.90;;;;;;5054652;28;20467;-66
2022/05/01 02:52:25;;;;;;;9.32;5.50;;;11.00;99.90;;;;;;5035787;28;20462;-63
2022/05/01 02:54:51;;;;;;;9.10;5.13;;;11.10;99.90;;;;;;5053421;28;20090;-66
2022/05/01 02:57:17;;;;;;;10.45;5.53;;;11.10;99.90;;;;;;5053210;28;20021;-65
2022/05/01 02:59:42;;;;;;;7.38;4.43;;;11.10;99.90;;;;;;5053319;28;20032;-71
2022/05/01 03:02:08;;;;;;;11.13;5.65;;;11.10;99.90;;;;;;5053056;28;20033;-64
2022/05/01 03:04:35;;;;;;;8.52;5.25;;;11.10;99.90;;;;;;5053629;28;20017;-68
2022/05/01 03:07:04;;;;;;;6.53;4.97;;;11.10;99.90;;;;;;5035814;28;20094;-65
2022/05/01 03:09:29;;;;;;;7.40;5.43;;;11.10;99.90;;;;;;5034877;28;20037;-67
2022/05/01 03:11:55;;;;;;;8.68;4.95;;;11.10;99.90;;;;;;5053038;28;20052;-64
2022/05/01 03:14:21;;;;;;;9.20;5.35;;;11.10;99.90;;;;;;5052321;28;20031;-64
2022/05/01 03:16:46;;;;;;;6.45;5.30;;;11.00;99.90;;;;;;5053145;28;20497;-63
2022/05/01 03:22:13;;;;;;;9.18;4.88;;;11.00;99.90;;;;;;5053506;28;20107;-63
2022/05/01 03:24:40;;;;;;;9.80;7.03;;;11.10;99.90;;;;;;5052720;28;20028;-63
2022/05/01 03:27:06;;;;;;;8.18;5.40;;;11.00;99.90;;;;;;5053134;28;20163;-62
2022/05/01 03:29:33;;;;;;;9.68;5.45;;;10.90;99.90;;;;;;5052740;28;20572;-64
2022/05/01 03:31:59;;;;;;;9.55;6.00;;;11.00;99.90;;;;;;5052741;28;20021;-63
2022/05/01 03:34:26;;;;;;;9.75;5.68;;;11.00;99.90;;;;;;5052115;28;20021;-66
2022/05/01 03:36:53;;;;;;;9.40;5.53;;;11.00;99.90;;;;;;5035010;28;20066;-63
2022/05/01 03:39:20;;;;;;;10.07;6.05;;;10.90;99.90;;;;;;5034722;28;20054;-65
2022/05/01 03:41:46;;;;;;;9.05;5.53;;;10.90;99.90;;;;;;5053029;28;20029;-62
2022/05/01 03:44:12;;;;;;;8.38;5.55;;;10.90;99.90;;;;;;5034756;28;20115;-63
2022/05/01 03:46:38;;;;;;;8.07;5.43;;;11.00;99.90;;;;;;5035462;28;20025;-66
2022/05/01 03:49:07;;;;;;;5.80;4.93;;;11.00;99.90;;;;;;5053145;28;20029;-64
2022/05/01 03:51:33;;;;;;;9.98;6.32;;;11.00;99.90;;;;;;5052574;28;20056;-63
2022/05/01 03:54:02;;;;;;;7.32;6.20;;;10.90;99.90;;;;;;5052618;28;20033;-64
2022/05/01 03:56:31;;;;;;;8.23;6.25;;;10.90;99.90;;;;;;5051986;28;20032;-63
2022/05/01 03:58:57;;;;;;;8.30;5.53;;;10.80;99.90;;;;;;5052603;28;20021;-63
2022/05/01 04:01:25;;;;;;;10.25;6.10;;;10.80;99.90;;;;;;5052089;28;20074;-63
2022/05/01 04:03:51;;;;;;;9.02;6.32;;;10.90;99.90;;;;;;5034575;28;20086;-64
2022/05/01 04:06:17;;;;;;;9.40;5.72;;;10.90;99.90;;;;;;5051939;28;20087;-65
2022/05/01 04:08:42;;;;;;;7.20;6.18;;;10.90;99.90;;;;;;5035103;28;20033;-65
2022/05/01 04:11:08;;;;;;;8.95;6.57;;;10.90;99.90;;;;;;5036486;28;20029;-64
2022/05/01 04:13:35;;;;;;;10.52;5.32;;;10.90;99.90;;;;;;5053320;28;20328;-65
2022/05/01 04:16:01;;;;;;;9.65;6.55;;;10.90;99.90;;;;;;5036431;28;20069;-69
2022/05/01 04:18:27;;;;;;;14.38;6.57;;;10.90;99.90;;;;;;5052850;28;20029;-66
2022/05/01 04:20:53;;;;;;;12.38;6.03;;;11.00;99.90;;;;;;5052321;28;20045;-63
2022/05/01 04:23:19;;;;;;;6.45;5.25;;;11.00;99.90;;;;;;5052481;28;20056;-64
2022/05/01 04:25:45;;;;;;;12.07;6.30;;;10.90;99.90;;;;;;5034353;28;20025;-64
2022/05/01 04:28:12;;;;;;;9.48;5.85;;;10.90;99.90;;;;;;5034160;28;20394;-73
2022/05/01 04:30:39;;;;;;;7.57;6.00;;;11.00;99.90;;;;;;5034492;28;20024;-63
2022/05/01 04:33:08;;;;;;;8.20;5.88;;;10.90;99.90;;;;;;5052200;28;20116;-63
2022/05/01 04:35:43;;;;;;;8.13;5.53;;;10.80;99.90;;;;;;5051663;28;20029;-63
2022/05/01 04:38:14;;;;;;;7.28;5.75;;;10.90;99.90;;;;;;5052267;28;20032;-64
2022/05/01 04:40:53;;;;;;;9.52;6.60;;;10.90;99.90;;;;;;5034293;28;20029;-62
2022/05/01 04:43:20;;;;;;;8.48;5.22;;;10.90;99.90;;;;;;5033920;28;20034;-68
2022/05/01 04:45:55;;;;;;;9.10;6.60;;;10.90;99.90;;;;;;5034790;28;20025;-66
2022/05/01 04:48:22;;;;;;;7.88;6.38;;;10.90;99.90;;;;;;5034520;28;20459;-70
2022/05/01 04:50:48;;;;;;;12.48;6.82;;;10.90;99.90;;;;;;5035202;28;20173;-66
2022/05/01 04:53:16;;;;;;;10.27;6.40;;;10.90;99.90;;;;;;5018421;28;20038;-66
2022/05/01 04:55:43;;;;;;;9.13;6.07;;;10.90;99.90;;;;;;5053172;28;20033;-65
2022/05/01 04:58:10;;;;;;;11.18;6.22;;;11.00;99.90;;;;;;5034632;28;20029;-63
2022/05/01 05:00:37;;;;;;;8.57;6.10;;;10.90;99.90;;;;;;5051970;28;20114;-64
2022/05/01 05:03:03;;;;;;;7.25;6.15;;;11.00;99.90;;;;;;5052516;28;20022;-67
2022/05/01 05:05:31;;;;;;;9.75;6.45;;;10.90;99.90;;;;;;5052034;28;20025;-66
2022/05/01 05:09:53;;;;;;;10.30;7.10;;;10.90;99.90;;;;;;5052317;28;20025;-64
2022/05/01 05:10:46;;;;;;;7.47;5.80;;;10.90;99.90;;;;;;5052332;28;20470;-63
2022/05/01 05:13:13;;;;;;;7.63;6.05;;;10.90;99.90;;;;;;5052144;28;20037;-63
2022/05/01 05:15:39;;;;;;;5.80;5.22;;;10.90;99.90;;;;;;5052792;28;20067;-66
2022/05/01 05:18:04;;;;;;;11.45;7.40;;;10.90;99.90;;;;;;5035251;28;20061;-63
2022/05/01 05:20:30;;;;;;;8.43;5.68;;;11.00;99.90;;;;;;5052326;28;20049;-63
2022/05/01 05:22:56;;;;;;;7.35;5.95;;;11.00;99.90;;;;;;5038153;28;20033;-71
2022/05/01 05:25:22;;;;;;;10.52;6.00;;;11.10;99.90;;;;;;5037266;28;20029;-65
2022/05/01 05:27:48;;;;;;;6.25;5.65;;;11.10;99.90;;;;;;5037387;28;20058;-65
2022/05/01 05:30:14;;;;;;;7.07;6.38;;;11.10;99.90;;;;;;5037656;28;20075;-64
2022/05/01 05:32:39;;;;;;;13.02;7.13;;;11.20;99.90;;;;;;5055731;28;20025;-64
2022/05/01 05:35:06;;;;;;;7.93;5.95;;;11.20;99.90;;;;;;5055129;28;20108;-63
2022/05/01 05:37:32;;;;;;;6.75;6.03;;;11.30;99.90;;;;;;5054913;28;20056;-63
2022/05/01 05:39:58;;;;;;;9.77;5.93;;;11.30;99.90;;;;;;5055349;28;20055;-63
2022/05/01 05:42:24;;;;;;;6.30;5.35;;;11.30;99.90;;;;;;5054318;28;20482;-66
2022/05/01 05:44:49;;;;;;;10.85;5.97;;;11.40;99.90;;;;;;5037125;28;20032;-63
2022/05/01 05:47:15;;;;;;;9.68;6.03;;;11.50;99.90;;;;;;5054511;28;20032;-70
2022/05/01 05:49:41;;;;;;;7.63;5.57;;;11.50;99.90;;;;;;5037078;28;20033;-71
2022/05/01 05:52:07;;;;;;;8.52;5.20;;;11.50;99.90;;;;;;5054747;28;20159;-63
2022/05/01 05:54:33;;;;;;;6.90;5.43;;;11.40;99.90;;;;;;5054465;28;20151;-63
2022/05/01 05:56:59;;;;;;;10.25;6.60;;;11.40;99.90;;;;;;5054747;28;20104;-64
2022/05/01 05:59:24;;;;;;;7.97;5.75;;;11.50;99.90;;;;;;5054522;28;20454;-68
2022/05/01 06:01:50;;;;;;;6.55;5.78;;;11.50;99.90;;;;;;5054667;28;20029;-64
2022/05/01 06:04:16;;;;;;;7.85;5.50;;;11.60;99.90;;;;;;5036462;28;20025;-70
2022/05/01 06:06:42;;;;;;;9.05;5.70;;;11.60;99.90;;;;;;5054144;28;20025;-64
2022/05/01 06:09:08;;;;;;;10.50;5.57;;;11.70;99.90;;;;;;5036372;28;20033;-62
2022/05/01 06:11:35;;;;;;;8.70;5.50;;;11.70;99.90;;;;;;5053454;28;20516;-65
2022/05/01 06:14:04;;;;;;;8.70;5.55;;;11.70;99.90;;;;;;5053793;28;20347;-63
2022/05/01 06:16:31;;;;;;;6.68;5.25;;;11.70;99.90;;;;;;5053615;28;20029;-63
2022/05/01 06:18:58;;;;;;;12.90;5.72;;;11.70;99.90;;;;;;5053890;28;20025;-64
2022/05/01 06:21:24;;;;;;;11.55;6.70;;;11.80;99.90;;;;;;5053386;28;20139;-64
2022/05/01 06:23:49;;;;;;;9.73;5.40;;;11.70;99.90;;;;;;5054017;28;20441;-65
2022/05/01 06:26:15;;;;;;;6.00;5.30;;;11.80;99.90;;;;;;5054148;28;20113;-63
2022/05/01 06:28:41;;;;;;;5.97;5.13;;;11.80;99.90;;;;;;5035695;28;20032;-63
2022/05/01 06:31:07;;;;;;;8.20;5.40;;;11.80;99.90;;;;;;5053645;28;20040;-65
2022/05/01 06:33:35;;;;;;;8.48;5.53;;;11.90;99.90;;;;;;5052981;28;20063;-62
2022/05/01 06:36:02;;;;;;;8.70;5.50;;;11.90;99.90;;;;;;5036109;28;20486;-63
2022/05/01 06:38:29;;;;;;;7.85;5.43;;;11.90;99.90;;;;;;5054069;28;20029;-64
2022/05/01 06:40:55;;;;;;;8.77;5.00;;;11.80;99.90;;;;;;5054154;28;20108;-63
2022/05/01 06:43:21;;;;;;;11.80;5.97;;;11.80;99.90;;;;;;5035388;28;20107;-65
2022/05/01 06:45:48;;;;;;;9.65;5.85;;;11.90;99.90;;;;;;5035871;28;20036;-64
2022/05/01 06:48:13;;;;;;;8.35;5.95;;;12.00;99.90;;;;;;5023800;28;20096;-63
2022/05/01 06:50:40;;;;;;;6.50;5.32;;;12.20;99.90;;;;;;4997980;28;20030;-72
2022/05/01 06:53:07;;;;;;;7.15;4.72;;;12.30;99.90;;;;;;5017401;28;20037;-57
2022/05/01 06:55:33;;;;;;;9.38;5.68;;;12.40;99.90;;;;;;5014215;28;20056;-63
2022/05/01 06:57:58;;;;;;;7.78;5.18;;;12.80;99.90;;;;;;5015669;28;20350;-64
2022/05/01 07:00:24;;;;;;;10.73;5.82;;;12.60;99.90;;;;;;5032545;28;20029;-63
2022/05/01 07:02:52;;;;;;;10.02;5.28;;;12.60;99.90;;;;;;5015119;28;20022;-63
2022/05/01 07:05:19;;;;;;;7.43;4.97;;;12.60;99.90;;;;;;5014661;28;20395;-65
2022/05/01 07:07:46;;;;;;;9.38;5.50;;;12.60;99.90;;;;;;5015020;28;20029;-64
2022/05/01 07:10:13;;;;;;;7.15;4.60;;;12.70;99.90;;;;;;5032526;28;20026;-64
2022/05/01 07:12:38;;;;;;;6.95;4.70;;;13.00;99.90;;;;;;5001299;28;20109;-63
2022/05/01 07:15:05;;;;;;;8.82;5.45;;;13.20;99.90;;;;;;5044343;28;20060;-64
2022/05/01 07:17:32;;;;;;;7.15;4.80;;;13.40;99.90;;;;;;5051125;28;20489;-63
2022/05/01 07:19:57;;;;;;;8.35;4.88;;;13.60;99.90;;;;;;5048915;28;20064;-63
2022/05/01 07:22:23;;;;;;;9.85;5.55;;;13.80;99.90;;;;;;5016048;28;20056;-65
2022/05/01 07:24:49;;;;;;;8.38;4.78;;;13.90;99.90;;;;;;5013700;28;20359;-64
2022/05/01 07:27:14;;;;;;;10.82;5.80;;;14.20;99.90;;;;;;5027650;28;20029;-64
2022/05/01 07:29:40;;;;;;;6.60;5.22;;;14.30;99.90;;;;;;5021459;28;20083;-64
2022/05/01 07:32:06;;;;;;;5.45;4.45;;;14.40;99.90;;;;;;5024694;28;20055;-64
2022/05/01 07:34:32;;;;;;;6.25;5.15;;;14.60;99.90;;;;;;5030520;28;20053;-64
2022/05/01 07:36:57;;;;;;;9.82;5.43;;;14.80;99.90;;;;;;5031481;28;20040;-63
2022/05/01 07:39:23;;;;;;;8.13;5.28;;;15.00;99.90;;;;;;5027722;28;20029;-63
2022/05/01 07:41:48;;;;;;;9.32;4.90;;;15.40;99.90;;;;;;5027859;28;20374;-64
2022/05/01 07:44:14;;;;;;;8.85;5.38;;;15.60;99.90;;;;;;5033193;28;20068;-64
2022/05/01 07:46:41;;;;;;;8.95;5.10;;;15.70;99.90;;;;;;5027286;28;20026;-64
2022/05/01 07:49:08;;;;;;;8.63;4.78;;;15.50;99.90;;;;;;5022027;28;20037;-63
2022/05/01 07:51:34;;;;;;;9.38;5.13;;;15.70;99.90;;;;;;5024293;28;20164;-65
2022/05/01 07:54:01;;;;;;;9.90;4.88;;;15.50;99.90;;;;;;5018916;28;20040;-68
2022/05/01 07:56:27;;;;;;;9.02;5.30;;;15.60;99.90;;;;;;5013477;28;20030;-68
2022/05/01 07:58:53;;;;;;;6.80;4.47;;;15.50;99.90;;;;;;5041944;28;20378;-69
2022/05/01 08:01:20;;;;;;;10.02;5.78;;;15.70;99.90;;;;;;5003887;28;20055;-69
2022/05/01 08:06:30;;;;;;;8.45;4.60;;;15.60;99.90;;;;;;5021846;28;20041;-65
2022/05/01 08:08:56;;;;;;;10.07;5.28;;;15.70;99.90;;;;;;5021697;28;20041;-64
2022/05/01 08:11:21;;;;;;;8.73;4.65;;;15.70;99.90;;;;;;5030700;28;20032;-64
2022/05/01 08:13:47;;;;;;;6.82;4.72;;;15.60;99.90;;;;;;5044265;28;20029;-63
2022/05/01 08:16:13;;;;;;;8.55;4.90;;;15.80;99.90;;;;;;5031733;28;20371;-64
2022/05/01 08:21:24;;;;;;;7.28;4.45;;;15.60;99.90;;;;;;5009550;28;20080;-63
2022/05/01 08:23:50;;;;;;;10.52;5.28;;;15.50;99.90;;;;;;5010703;28;20034;-62
2022/05/01 08:26:17;;;;;;;5.82;4.93;;;15.60;99.90;;;;;;4997095;28;20484;-63
2022/05/01 08:28:45;;;;;;;6.47;5.20;;;15.60;99.90;;;;;;4995492;28;20038;-62
2022/05/01 08:31:10;;;;;;;9.30;6.05;;;15.70;99.90;;;;;;4991039;28;20049;-63
2022/05/01 08:33:37;;;;;;;9.63;6.13;;;15.70;99.90;;;;;;5004005;28;20443;-64
2022/05/01 08:36:05;;;;;;;12.88;5.28;;;15.70;99.90;;;;;;5030613;28;20041;-63
2022/05/01 08:38:31;;;;;;;7.72;5.28;;;15.70;99.90;;;;;;5013933;28;20032;-64
2022/05/01 08:40:57;;;;;;;9.50;5.80;;;15.60;99.90;;;;;;5008927;28;20030;-63
2022/05/01 08:43:24;;;;;;;8.45;5.07;;;15.50;99.90;;;;;;5009269;28;20026;-64
2022/05/01 08:45:53;;;;;;;10.48;5.25;;;15.60;99.90;;;;;;5005917;28;20041;-64
2022/05/01 08:48:29;;;;;;;5.70;4.68;;;15.70;99.90;;;;;;5027703;28;20036;-63
2022/05/01 08:50:55;;;;;;;10.57;4.78;;;16.00;99.90;;;;;;5015319;28;20088;-64
2022/05/01 08:53:23;;;;;;;7.38;4.88;;;16.10;99.90;;;;;;5016768;28;20087;-63
2022/05/01 08:55:50;;;;;;;7.50;4.47;;;16.50;99.90;;;;;;5019471;28;20378;-65
2022/05/01 08:58:16;;;;;;;10.88;5.53;;;16.70;99.80;;;;;;5014063;28;20085;-65
2022/05/01 09:00:43;;;;;;;5.97;4.60;;;17.00;99.50;;;;;;5026914;28;20026;-64
2022/05/01 09:03:09;;;;;;;6.95;4.55;;;17.10;99.00;;;;;;5026758;28;20103;-59
2022/05/01 09:05:35;;;;;;;7.32;4.07;;;17.20;98.90;;;;;;5033248;28;20136;-57
2022/05/01 09:08:00;;;;;;;9.68;3.80;;;17.80;99.90;;;;;;5033545;28;20116;-56
2022/05/01 09:10:27;;;;;;;6.70;4.28;;;18.00;99.90;;;;;;5033435;28;20057;-59
2022/05/01 09:12:53;;;;;;;7.70;4.10;;;18.50;98.40;;;;;;5031811;28;20025;-56
2022/05/01 09:15:34;;;;;;;6.60;3.70;;;18.60;98.90;;;;;;5033011;28;20017;-58
2022/05/01 09:18:21;;;;;;;10.02;6.30;;;18.90;98.80;;;;;;5034132;28;20091;-74
2022/05/01 09:21:08;;;;;;;9.05;5.55;;;18.40;96.70;;;;;;5040954;28;20052;-74
2022/05/01 09:23:45;;;;;;;7.65;4.90;;;18.30;96.60;;;;;;5035151;28;20029;-72
2022/05/01 09:26:14;;;;;;;9.15;5.80;;;18.00;96.70;;;;;;5053488;28;20024;-74
2022/05/01 09:28:48;;;;;;;12.82;3.42;;;17.40;98.40;;;;;;5034802;28;20382;-58
2022/05/01 09:31:13;;;;;;;9.50;4.43;;;18.80;99.60;;;;;;5036103;28;20442;-56
2022/05/01 09:33:39;;;;;;;11.95;5.32;;;18.90;97.10;;;;;;5052883;28;20029;-60
2022/05/01 09:36:05;;;;;;;4.55;4.00;;;19.20;96.50;;;;;;5053153;28;20123;-62
2022/05/01 09:38:33;;;;;;;10.95;4.22;;;19.80;97.20;;;;;;5052072;28;20025;-63
2022/05/01 09:41:01;;;;;;;9.20;4.25;;;20.30;96.70;;;;;;5052604;28;20052;-61
2022/05/01 09:43:42;;;;;;;9.68;4.63;;;20.90;95.30;;;;;;5052717;28;20082;-62
2022/05/01 09:46:19;;;;;;;6.15;2.90;;;21.20;93.20;;;;;;5027152;28;20124;-61
2022/05/01 09:49:05;;;;;;;6.45;3.63;;;21.40;94.80;;;;;;5021638;28;20076;-61
2022/05/01 09:51:38;;;;;;;6.63;3.28;;;21.90;94.30;;;;;;5012103;28;20076;-62
2022/05/01 09:54:07;;;;;;;10.40;4.40;;;22.60;93.60;;;;;;5022057;28;20045;-65
2022/05/01 09:56:46;;;;;;;6.88;5.07;;;22.90;91.90;;;;;;5031450;28;20057;-65
2022/05/01 09:59:13;;;;;;;6.00;3.45;;;22.80;90.40;;;;;;5032923;28;20059;-63
2022/05/01 10:01:39;;;;;;;7.22;4.15;;;23.00;91.20;;;;;;5034000;28;20025;-64
2022/05/01 10:04:04;;;;;;;10.05;4.45;;;23.40;90.90;;;;;;5053022;28;20432;-65
2022/05/01 10:06:32;;;;;;;7.80;4.70;;;23.20;89.90;;;;;;5052255;28;20029;-70
2022/05/01 10:08:58;;;;;;;11.60;4.65;;;22.20;90.50;;;;;;5034539;28;20040;-65
2022/05/01 10:11:25;;;;;;;7.00;4.75;;;22.60;90.20;;;;;;5052890;28;20040;-65
2022/05/01 10:13:51;;;;;;;5.35;4.32;;;22.10;90.00;;;;;;5051640;28;20021;-67
2022/05/01 10:16:17;;;;;;;6.78;5.53;;;22.10;91.40;;;;;;5034930;28;20038;-65
2022/05/01 10:18:45;;;;;;;9.75;6.45;;;21.70;90.80;;;;;;5012549;28;20018;-64
2022/05/01 10:21:11;;;;;;;7.72;4.30;;;21.80;90.30;;;;;;5014560;28;20179;-65
2022/05/01 10:23:39;;;;;;;5.93;4.70;;;22.50;90.50;;;;;;5014169;28;20033;-64
2022/05/01 10:26:13;;;;;;;7.35;4.68;;;22.50;89.20;;;;;;5014541;28;20461;-65
2022/05/01 10:28:51;;;;;;;9.80;6.05;;;22.00;89.90;;;;;;5043530;28;20033;-65
2022/05/01 10:32:22;;;;;;;8.75;5.05;;;21.70;90.30;;;;;;5027095;28;20556;-65
2022/05/01 10:35:03;;;;;;;11.07;4.10;;;21.40;90.20;;;;;;5049048;28;20033;-64
2022/05/01 10:37:47;;;;;;;8.57;5.57;;;21.70;92.60;;;;;;5017319;28;20049;-66
2022/05/01 10:40:13;;;;;;;9.15;5.20;;;21.80;93.30;;;;;;5012710;28;20022;-65
2022/05/01 10:42:45;;;;;;;10.60;5.82;;;21.50;91.40;;;;;;5029303;28;20490;-66
2022/05/01 10:45:26;;;;;;;6.72;5.78;;;21.40;90.20;;;;;;5021227;28;20490;-65
2022/05/01 10:47:54;;;;;;;7.78;5.38;;;22.00;89.20;;;;;;5031261;28;20112;-65
2022/05/01 10:50:22;;;;;;;6.65;4.82;;;22.20;89.60;;;;;;5013421;28;20048;-66
2022/05/01 10:53:08;;;;;;;7.05;5.57;;;22.10;88.50;;;;;;5012953;28;20545;-67
2022/05/01 10:55:51;;;;;;;9.85;5.53;;;21.80;89.00;;;;;;5013489;28;20396;-67
2022/05/01 10:58:21;;;;;;;6.90;5.68;;;22.10;89.00;;;;;;5032220;28;20469;-66
2022/05/01 11:00:50;;;;;;;9.20;7.25;;;22.00;88.40;;;;;;5012739;28;20204;-66
2022/05/01 11:03:30;;;;;;;15.23;5.40;;;21.70;89.00;;;;;;5013659;28;20036;-65
2022/05/01 11:06:01;;;;;;;12.95;6.07;;;21.40;89.60;;;;;;5013225;28;20459;-65
2022/05/01 11:08:29;;;;;;;6.25;5.22;;;21.10;90.00;;;;;;5031615;28;20477;-66
2022/05/01 11:10:59;;;;;;;9.45;5.40;;;21.00;90.00;;;;;;5013114;28;20087;-66
2022/05/01 11:13:33;;;;;;;6.93;4.82;;;21.20;90.50;;;;;;5031438;28;20033;-65
2022/05/01 11:15:59;;;;;;;7.40;6.32;;;21.40;90.20;;;;;;5012614;28;20080;-67
2022/05/01 11:18:52;;;;;;;8.98;5.88;;;21.40;89.80;;;;;;5013424;28;20029;-65
2022/05/01 11:21:20;;;;;;;8.15;6.38;;;21.60;90.00;;;;;;5031290;28;20140;-64
2022/05/01 11:23:59;;;;;;;11.75;4.95;;;22.00;88.10;;;;;;5030752;28;20116;-66
2022/05/01 11:26:26;;;;;;;8.35;5.18;;;21.70;89.30;;;;;;5013409;28;20079;-64
2022/05/01 11:28:54;;;;;;;7.35;5.55;;;22.00;89.30;;;;;;5012366;28;20025;-65
2022/05/01 11:31:38;;;;;;;9.25;5.90;;;21.70;88.10;;;;;;5031293;28;20064;-65
2022/05/01 11:34:16;;;;;;;9.15;5.18;;;21.20;89.60;;;;;;5030844;28;20422;-65
2022/05/01 11:37:03;;;;;;;9.18;5.15;;;21.60;89.40;;;;;;5030401;28;20133;-65
2022/05/01 11:39:46;;;;;;;8.40;6.20;;;21.30;89.90;;;;;;5031186;28;20037;-66
2022/05/01 11:42:25;;;;;;;10.85;6.38;;;21.60;89.00;;;;;;5031674;28;20026;-65
2022/05/01 11:44:56;;;;;;;10.30;5.60;;;21.80;87.90;;;;;;5030010;28;20021;-66
2022/05/01 11:47:23;;;;;;;10.98;5.47;;;22.40;88.00;;;;;;5030633;28;20068;-64
2022/05/01 11:49:51;;;;;;;9.32;6.65;;;22.60;86.40;;;;;;5029799;28;20050;-64
2022/05/01 11:52:17;;;;;;;10.40;5.68;;;22.30;85.80;;;;;;5031148;28;20447;-65
2022/05/01 11:54:54;;;;;;;7.68;5.32;;;22.10;86.40;;;;;;5030094;28;20029;-64
2022/05/01 12:03:00;;;;;;;8.73;5.95;;;23.20;83.90;;;;;;5030242;28;20060;-65
2022/05/01 12:05:28;;;;;;;8.77;6.22;;;22.70;84.40;;;;;;5030249;28;20061;-65
2022/05/01 12:07:55;;;;;;;9.30;5.60;;;22.50;85.00;;;;;;5012219;28;20038;-66
2022/05/01 12:10:21;;;;;;;12.13;6.10;;;22.50;85.60;;;;;;5012653;28;20451;-65
2022/05/01 12:12:47;;;;;;;8.77;6.57;;;22.20;85.50;;;;;;5011863;28;20164;-65
2022/05/01 12:15:12;;;;;;;7.75;5.22;;;21.50;87.40;;;;;;5012537;28;20463;-65
2022/05/01 12:17:42;;;;;;;7.95;5.60;;;21.40;87.50;;;;;;5029987;28;20063;-70
2022/05/01 12:20:09;;;;;;;12.25;5.80;;;21.40;87.20;;;;;;5011905;28;20160;-64
2022/05/01 12:22:37;;;;;;;10.98;5.60;;;21.30;88.20;;;;;;5030597;28;20037;-65
2022/05/01 12:25:09;;;;;;;8.48;6.10;;;21.10;88.30;;;;;;5029833;28;20028;-65
2022/05/01 12:27:40;;;;;;;10.73;6.28;;;21.90;87.80;;;;;;5012581;28;20108;-65
2022/05/01 12:30:07;;;;;;;5.68;4.95;;;22.30;86.40;;;;;;5031779;28;20034;-67
2022/05/01 12:32:33;;;;;;;8.90;5.55;;;22.50;86.30;;;;;;5034422;28;20041;-65
2022/05/01 12:35:01;;;;;;;7.50;5.70;;;22.80;85.80;;;;;;5015923;28;20280;-66
2022/05/01 12:37:34;;;;;;;6.97;4.80;;;23.10;82.70;;;;;;5016378;28;20033;-65
2022/05/01 12:40:09;;;;;;;7.95;6.50;;;23.70;82.80;;;;;;5016024;28;20223;-65
2022/05/01 12:45:37;;;;;;;10.13;6.97;;;23.10;81.00;;;;;;5034377;28;20425;-65
2022/05/01 12:48:05;;;;;;;9.90;5.75;;;22.50;81.60;;;;;;5015626;28;20056;-64
2022/05/01 12:50:31;;;;;;;8.13;6.57;;;22.30;83.70;;;;;;5034208;28;20347;-66
2022/05/01 12:53:19;;;;;;;9.18;6.07;;;22.50;84.80;;;;;;5033298;28;20044;-66
2022/05/01 12:55:45;;;;;;;9.52;5.68;;;22.80;83.40;;;;;;5032851;28;20159;-66
2022/05/01 12:58:11;;;;;;;7.32;6.05;;;23.30;82.00;;;;;;5033430;28;20443;-65
2022/05/01 13:00:45;;;;;;;7.22;5.93;;;23.50;81.10;;;;;;5033619;28;20041;-65
2022/05/01 13:03:36;;;;;;;10.00;6.07;;;23.70;81.20;;;;;;5033710;28;20026;-65
2022/05/01 13:06:09;;;;;;;8.07;5.85;;;23.20;80.60;;;;;;5033250;28;20029;-66
2022/05/01 13:08:38;;;;;;;7.45;6.60;;;23.30;81.20;;;;;;5033493;28;20044;-65
2022/05/01 13:11:21;;;;;;;6.88;5.50;;;23.60;81.40;;;;;;5032725;28;20025;-64
2022/05/01 13:14:00;;;;;;;8.18;6.30;;;23.60;80.90;;;;;;5015229;28;20163;-66